sensor_id;sensor_type;location;lat;lon;timestamp;temperature;humidity
66522;SHT31;53349;53.538;8.584;2023-02-02T00:02:04;6.44;72.89
66522;SHT31;53349;53.538;8.584;2023-02-02T00:04:32;6.42;72.92
66522;SHT31;53349;53.538;8.584;2023-02-02T00:06:59;6.40;72.99
66522;SHT31;53349;53.538;8.584;2023-02-02T00:09:30;6.38;73.27
66522;SHT31;53349;53.538;8.584;2023-02-02T00:11:57;6.35;73.51
66522;SHT31;53349;53.538;8.584;2023-02-02T00:14:24;6.35;73.93
66522;SHT31;53349;53.538;8.584;2023-02-02T00:16:55;6.31;73.96
66522;SHT31;53349;53.538;8.584;2023-02-02T00:19:27;6.30;74.09
66522;SHT31;53349;53.538;8.584;2023-02-02T00:21:53;6.30;74.20
66522;SHT31;53349;53.538;8.584;2023-02-02T00:24:19;6.32;74.26
66522;SHT31;53349;53.538;8.584;2023-02-02T00:26:50;6.34;74.35
66522;SHT31;53349;53.538;8.584;2023-02-02T00:29:19;6.34;74.38
66522;SHT31;53349;53.538;8.584;2023-02-02T00:31:45;6.32;74.40
66522;SHT31;53349;53.538;8.584;2023-02-02T00:34:12;6.34;74.77
66522;SHT31;53349;53.538;8.584;2023-02-02T00:36:38;6.34;74.63
66522;SHT31;53349;53.538;8.584;2023-02-02T00:39:04;6.35;74.52
66522;SHT31;53349;53.538;8.584;2023-02-02T00:41:32;6.31;74.70
66522;SHT31;53349;53.538;8.584;2023-02-02T00:43:58;6.31;74.86
66522;SHT31;53349;53.538;8.584;2023-02-02T00:46:24;6.32;74.98
66522;SHT31;53349;53.538;8.584;2023-02-02T00:48:50;6.31;75.17
66522;SHT31;53349;53.538;8.584;2023-02-02T00:51:15;6.32;75.44
66522;SHT31;53349;53.538;8.584;2023-02-02T00:53:41;6.32;75.46
66522;SHT31;53349;53.538;8.584;2023-02-02T00:56:06;6.32;75.57
66522;SHT31;53349;53.538;8.584;2023-02-02T00:58:31;6.35;75.79
66522;SHT31;53349;53.538;8.584;2023-02-02T01:00:57;6.32;75.75
66522;SHT31;53349;53.538;8.584;2023-02-02T01:03:23;6.31;75.64
66522;SHT31;53349;53.538;8.584;2023-02-02T01:05:51;6.30;75.59
66522;SHT31;53349;53.538;8.584;2023-02-02T01:08:18;6.30;75.46
66522;SHT31;53349;53.538;8.584;2023-02-02T01:10:43;6.27;75.41
66522;SHT31;53349;53.538;8.584;2023-02-02T01:13:08;6.31;75.21
66522;SHT31;53349;53.538;8.584;2023-02-02T01:15:35;6.28;75.03
66522;SHT31;53349;53.538;8.584;2023-02-02T01:18:04;6.31;74.83
66522;SHT31;53349;53.538;8.584;2023-02-02T01:20:29;6.30;75.02
66522;SHT31;53349;53.538;8.584;2023-02-02T01:22:56;6.32;74.91
66522;SHT31;53349;53.538;8.584;2023-02-02T01:25:24;6.31;75.02
66522;SHT31;53349;53.538;8.584;2023-02-02T01:27:49;6.30;75.00
66522;SHT31;53349;53.538;8.584;2023-02-02T01:30:15;6.32;74.90
66522;SHT31;53349;53.538;8.584;2023-02-02T01:32:40;6.30;75.26
66522;SHT31;53349;53.538;8.584;2023-02-02T01:35:06;6.31;75.16
66522;SHT31;53349;53.538;8.584;2023-02-02T01:37:37;6.30;75.23
66522;SHT31;53349;53.538;8.584;2023-02-02T01:40:03;6.32;75.07
66522;SHT31;53349;53.538;8.584;2023-02-02T01:42:28;6.31;75.11
66522;SHT31;53349;53.538;8.584;2023-02-02T01:45:20;6.35;75.04
66522;SHT31;53349;53.538;8.584;2023-02-02T01:48:01;6.34;75.10
66522;SHT31;53349;53.538;8.584;2023-02-02T01:50:31;6.34;74.94
66522;SHT31;53349;53.538;8.584;2023-02-02T01:52:59;6.32;74.69
66522;SHT31;53349;53.538;8.584;2023-02-02T01:55:27;6.31;74.41
66522;SHT31;53349;53.538;8.584;2023-02-02T01:58:05;6.31;74.21
66522;SHT31;53349;53.538;8.584;2023-02-02T02:00:33;6.31;74.25
66522;SHT31;53349;53.538;8.584;2023-02-02T02:03:11;6.27;74.33
66522;SHT31;53349;53.538;8.584;2023-02-02T02:05:43;6.28;74.46
66522;SHT31;53349;53.538;8.584;2023-02-02T02:08:20;6.30;74.59
66522;SHT31;53349;53.538;8.584;2023-02-02T02:10:47;6.31;74.84
66522;SHT31;53349;53.538;8.584;2023-02-02T02:13:13;6.31;75.04
66522;SHT31;53349;53.538;8.584;2023-02-02T02:15:59;6.28;75.06
66522;SHT31;53349;53.538;8.584;2023-02-02T02:19:39;6.30;75.17
66522;SHT31;53349;53.538;8.584;2023-02-02T02:22:15;6.28;75.24
66522;SHT31;53349;53.538;8.584;2023-02-02T02:27:58;6.25;75.51
66522;SHT31;53349;53.538;8.584;2023-02-02T02:42:40;6.23;76.53
66522;SHT31;53349;53.538;8.584;2023-02-02T02:45:10;6.18;76.44
66522;SHT31;53349;53.538;8.584;2023-02-02T02:47:37;6.13;76.49
66522;SHT31;53349;53.538;8.584;2023-02-02T02:50:04;6.10;76.37
66522;SHT31;53349;53.538;8.584;2023-02-02T02:52:30;6.03;76.12
66522;SHT31;53349;53.538;8.584;2023-02-02T02:54:57;5.94;75.95
66522;SHT31;53349;53.538;8.584;2023-02-02T02:57:43;5.87;75.65
66522;SHT31;53349;53.538;8.584;2023-02-02T03:03:25;5.80;76.45
66522;SHT31;53349;53.538;8.584;2023-02-02T03:06:07;5.79;76.54
66522;SHT31;53349;53.538;8.584;2023-02-02T03:08:45;5.82;76.68
66522;SHT31;53349;53.538;8.584;2023-02-02T03:11:12;5.79;76.75
66522;SHT31;53349;53.538;8.584;2023-02-02T03:13:40;5.80;76.81
66522;SHT31;53349;53.538;8.584;2023-02-02T03:16:07;5.77;76.78
66522;SHT31;53349;53.538;8.584;2023-02-02T03:18:33;5.76;76.78
66522;SHT31;53349;53.538;8.584;2023-02-02T03:21:00;5.77;76.99
66522;SHT31;53349;53.538;8.584;2023-02-02T03:23:27;5.74;77.27
66522;SHT31;53349;53.538;8.584;2023-02-02T03:25:53;5.80;77.47
66522;SHT31;53349;53.538;8.584;2023-02-02T03:28:20;5.83;77.78
66522;SHT31;53349;53.538;8.584;2023-02-02T03:30:47;5.85;77.78
66522;SHT31;53349;53.538;8.584;2023-02-02T03:33:19;5.90;77.68
66522;SHT31;53349;53.538;8.584;2023-02-02T03:35:44;5.90;77.48
66522;SHT31;53349;53.538;8.584;2023-02-02T03:38:11;5.94;77.45
66522;SHT31;53349;53.538;8.584;2023-02-02T03:40:37;5.96;77.35
66522;SHT31;53349;53.538;8.584;2023-02-02T03:43:03;5.96;77.25
66522;SHT31;53349;53.538;8.584;2023-02-02T03:45:30;5.96;77.16
66522;SHT31;53349;53.538;8.584;2023-02-02T03:47:55;5.96;77.12
66522;SHT31;53349;53.538;8.584;2023-02-02T03:50:24;5.97;77.00
66522;SHT31;53349;53.538;8.584;2023-02-02T03:52:49;5.97;77.05
66522;SHT31;53349;53.538;8.584;2023-02-02T03:55:15;5.99;76.93
66522;SHT31;53349;53.538;8.584;2023-02-02T03:57:42;5.94;76.96
66522;SHT31;53349;53.538;8.584;2023-02-02T04:00:09;5.91;76.87
66522;SHT31;53349;53.538;8.584;2023-02-02T04:02:35;5.91;76.99
66522;SHT31;53349;53.538;8.584;2023-02-02T04:05:00;5.90;76.98
66522;SHT31;53349;53.538;8.584;2023-02-02T04:07:25;5.91;76.87
66522;SHT31;53349;53.538;8.584;2023-02-02T04:09:51;5.89;76.94
66522;SHT31;53349;53.538;8.584;2023-02-02T04:12:16;5.83;77.05
66522;SHT31;53349;53.538;8.584;2023-02-02T04:14:42;5.82;77.22
66522;SHT31;53349;53.538;8.584;2023-02-02T04:17:07;5.77;77.26
66522;SHT31;53349;53.538;8.584;2023-02-02T04:19:34;5.77;77.36
66522;SHT31;53349;53.538;8.584;2023-02-02T04:21:59;5.77;77.44
66522;SHT31;53349;53.538;8.584;2023-02-02T04:24:24;5.76;77.39
66522;SHT31;53349;53.538;8.584;2023-02-02T04:26:50;5.73;77.51
66522;SHT31;53349;53.538;8.584;2023-02-02T04:29:15;5.69;77.60
66522;SHT31;53349;53.538;8.584;2023-02-02T04:31:41;5.70;77.61
66522;SHT31;53349;53.538;8.584;2023-02-02T04:34:06;5.67;77.73
66522;SHT31;53349;53.538;8.584;2023-02-02T04:36:33;5.66;77.87
66522;SHT31;53349;53.538;8.584;2023-02-02T04:38:58;5.63;78.02
66522;SHT31;53349;53.538;8.584;2023-02-02T04:41:24;5.66;78.04
66522;SHT31;53349;53.538;8.584;2023-02-02T04:43:49;5.63;77.98
66522;SHT31;53349;53.538;8.584;2023-02-02T04:46:14;5.65;78.07
66522;SHT31;53349;53.538;8.584;2023-02-02T04:48:40;5.63;78.08
66522;SHT31;53349;53.538;8.584;2023-02-02T04:51:09;5.63;78.05
66522;SHT31;53349;53.538;8.584;2023-02-02T04:53:36;5.63;77.93
66522;SHT31;53349;53.538;8.584;2023-02-02T04:56:06;5.63;78.08
66522;SHT31;53349;53.538;8.584;2023-02-02T04:58:31;5.62;78.10
66522;SHT31;53349;53.538;8.584;2023-02-02T05:00:57;5.60;78.26
66522;SHT31;53349;53.538;8.584;2023-02-02T05:03:22;5.60;78.32
66522;SHT31;53349;53.538;8.584;2023-02-02T05:05:48;5.59;78.42
66522;SHT31;53349;53.538;8.584;2023-02-02T05:08:13;5.59;78.55
66522;SHT31;53349;53.538;8.584;2023-02-02T05:10:39;5.56;78.64
66522;SHT31;53349;53.538;8.584;2023-02-02T05:13:04;5.56;78.55
66522;SHT31;53349;53.538;8.584;2023-02-02T05:15:31;5.58;78.34
66522;SHT31;53349;53.538;8.584;2023-02-02T05:17:56;5.56;78.22
66522;SHT31;53349;53.538;8.584;2023-02-02T05:20:22;5.56;78.07
66522;SHT31;53349;53.538;8.584;2023-02-02T05:22:48;5.53;78.00
66522;SHT31;53349;53.538;8.584;2023-02-02T05:25:13;5.55;77.93
66522;SHT31;53349;53.538;8.584;2023-02-02T05:27:42;5.53;77.92
66522;SHT31;53349;53.538;8.584;2023-02-02T05:30:10;5.55;78.01
66522;SHT31;53349;53.538;8.584;2023-02-02T05:32:35;5.58;77.90
66522;SHT31;53349;53.538;8.584;2023-02-02T05:35:01;5.56;77.86
66522;SHT31;53349;53.538;8.584;2023-02-02T05:37:26;5.58;77.85
66522;SHT31;53349;53.538;8.584;2023-02-02T05:39:51;5.58;77.90
66522;SHT31;53349;53.538;8.584;2023-02-02T05:42:20;5.56;77.96
66522;SHT31;53349;53.538;8.584;2023-02-02T05:44:47;5.58;77.95
66522;SHT31;53349;53.538;8.584;2023-02-02T05:47:14;5.59;77.85
66522;SHT31;53349;53.538;8.584;2023-02-02T05:49:39;5.58;77.82
66522;SHT31;53349;53.538;8.584;2023-02-02T05:52:04;5.59;77.70
66522;SHT31;53349;53.538;8.584;2023-02-02T05:54:30;5.60;77.70
66522;SHT31;53349;53.538;8.584;2023-02-02T05:56:56;5.58;77.81
66522;SHT31;53349;53.538;8.584;2023-02-02T05:59:21;5.59;77.94
66522;SHT31;53349;53.538;8.584;2023-02-02T06:01:47;5.60;77.99
66522;SHT31;53349;53.538;8.584;2023-02-02T06:04:13;5.62;78.07
66522;SHT31;53349;53.538;8.584;2023-02-02T06:06:39;5.62;78.08
66522;SHT31;53349;53.538;8.584;2023-02-02T06:09:05;5.58;78.14
66522;SHT31;53349;53.538;8.584;2023-02-02T06:11:31;5.63;78.12
66522;SHT31;53349;53.538;8.584;2023-02-02T06:13:57;5.60;78.04
66522;SHT31;53349;53.538;8.584;2023-02-02T06:16:22;5.59;78.12
66522;SHT31;53349;53.538;8.584;2023-02-02T06:18:48;5.56;78.21
66522;SHT31;53349;53.538;8.584;2023-02-02T06:21:13;5.56;78.25
66522;SHT31;53349;53.538;8.584;2023-02-02T06:23:40;5.56;78.39
66522;SHT31;53349;53.538;8.584;2023-02-02T06:26:05;5.52;78.42
66522;SHT31;53349;53.538;8.584;2023-02-02T06:28:31;5.52;78.54
66522;SHT31;53349;53.538;8.584;2023-02-02T06:31:05;5.48;78.58
66522;SHT31;53349;53.538;8.584;2023-02-02T06:33:32;5.49;78.61
66522;SHT31;53349;53.538;8.584;2023-02-02T06:36:05;5.48;78.77
66522;SHT31;53349;53.538;8.584;2023-02-02T06:38:31;5.46;78.69
66522;SHT31;53349;53.538;8.584;2023-02-02T06:41:00;5.46;78.78
66522;SHT31;53349;53.538;8.584;2023-02-02T06:43:26;5.45;78.74
66522;SHT31;53349;53.538;8.584;2023-02-02T06:45:52;5.43;78.85
66522;SHT31;53349;53.538;8.584;2023-02-02T06:48:17;5.45;78.80
66522;SHT31;53349;53.538;8.584;2023-02-02T06:50:44;5.43;78.91
66522;SHT31;53349;53.538;8.584;2023-02-02T06:53:09;5.42;78.96
66522;SHT31;53349;53.538;8.584;2023-02-02T06:55:34;5.42;78.95
66522;SHT31;53349;53.538;8.584;2023-02-02T06:58:00;5.41;78.87
66522;SHT31;53349;53.538;8.584;2023-02-02T07:00:27;5.41;78.91
66522;SHT31;53349;53.538;8.584;2023-02-02T07:02:54;5.38;78.92
66522;SHT31;53349;53.538;8.584;2023-02-02T07:05:19;5.38;78.95
66522;SHT31;53349;53.538;8.584;2023-02-02T07:07:45;5.38;78.98
66522;SHT31;53349;53.538;8.584;2023-02-02T07:10:12;5.34;79.13
66522;SHT31;53349;53.538;8.584;2023-02-02T07:12:37;5.31;79.20
66522;SHT31;53349;53.538;8.584;2023-02-02T07:15:03;5.29;79.26
66522;SHT31;53349;53.538;8.584;2023-02-02T07:17:28;5.29;79.23
66522;SHT31;53349;53.538;8.584;2023-02-02T07:19:54;5.28;79.31
66522;SHT31;53349;53.538;8.584;2023-02-02T07:22:19;5.28;79.38
66522;SHT31;53349;53.538;8.584;2023-02-02T07:24:45;5.31;79.36
66522;SHT31;53349;53.538;8.584;2023-02-02T07:27:10;5.34;79.41
66522;SHT31;53349;53.538;8.584;2023-02-02T07:29:38;5.35;79.40
66522;SHT31;53349;53.538;8.584;2023-02-02T07:32:04;5.32;79.51
66522;SHT31;53349;53.538;8.584;2023-02-02T07:34:29;5.31;79.45
66522;SHT31;53349;53.538;8.584;2023-02-02T07:36:56;5.29;79.52
66522;SHT31;53349;53.538;8.584;2023-02-02T07:39:21;5.34;79.78
66522;SHT31;53349;53.538;8.584;2023-02-02T07:41:47;5.36;79.90
66522;SHT31;53349;53.538;8.584;2023-02-02T07:44:13;5.43;79.89
66522;SHT31;53349;53.538;8.584;2023-02-02T07:46:38;5.49;79.82
66522;SHT31;53349;53.538;8.584;2023-02-02T07:49:04;5.53;79.77
66522;SHT31;53349;53.538;8.584;2023-02-02T07:51:29;5.55;79.58
66522;SHT31;53349;53.538;8.584;2023-02-02T07:53:54;5.56;79.68
66522;SHT31;53349;53.538;8.584;2023-02-02T07:56:25;5.60;79.75
66522;SHT31;53349;53.538;8.584;2023-02-02T07:58:53;5.62;79.59
66522;SHT31;53349;53.538;8.584;2023-02-02T08:01:19;5.62;79.62
66522;SHT31;53349;53.538;8.584;2023-02-02T08:03:44;5.60;79.45
66522;SHT31;53349;53.538;8.584;2023-02-02T08:06:16;5.63;79.32
66522;SHT31;53349;53.538;8.584;2023-02-02T08:08:43;5.65;79.20
66522;SHT31;53349;53.538;8.584;2023-02-02T08:11:11;5.65;79.12
66522;SHT31;53349;53.538;8.584;2023-02-02T08:13:38;5.65;79.14
66522;SHT31;53349;53.538;8.584;2023-02-02T08:16:04;5.67;79.52
66522;SHT31;53349;53.538;8.584;2023-02-02T08:18:31;5.73;80.02
66522;SHT31;53349;53.538;8.584;2023-02-02T08:20:58;5.79;80.19
66522;SHT31;53349;53.538;8.584;2023-02-02T08:23:23;5.79;80.29
66522;SHT31;53349;53.538;8.584;2023-02-02T08:25:49;5.89;80.28
66522;SHT31;53349;53.538;8.584;2023-02-02T08:28:18;5.97;80.68
66522;SHT31;53349;53.538;8.584;2023-02-02T08:30:44;6.14;81.00
66522;SHT31;53349;53.538;8.584;2023-02-02T08:33:09;6.38;81.00
66522;SHT31;53349;53.538;8.584;2023-02-02T08:35:44;6.65;80.91
66522;SHT31;53349;53.538;8.584;2023-02-02T08:38:09;6.76;79.63
66522;SHT31;53349;53.538;8.584;2023-02-02T08:40:34;6.78;79.18
66522;SHT31;53349;53.538;8.584;2023-02-02T08:43:01;6.75;78.33
66522;SHT31;53349;53.538;8.584;2023-02-02T08:45:26;6.73;78.17
66522;SHT31;53349;53.538;8.584;2023-02-02T08:47:52;6.72;77.41
66522;SHT31;53349;53.538;8.584;2023-02-02T08:50:18;6.79;77.34
66522;SHT31;53349;53.538;8.584;2023-02-02T08:52:44;6.83;77.12
66522;SHT31;53349;53.538;8.584;2023-02-02T08:55:09;6.83;76.99
66522;SHT31;53349;53.538;8.584;2023-02-02T08:57:34;6.85;76.67
66522;SHT31;53349;53.538;8.584;2023-02-02T09:00:00;6.91;76.67
66522;SHT31;53349;53.538;8.584;2023-02-02T09:02:26;6.97;76.45
66522;SHT31;53349;53.538;8.584;2023-02-02T09:04:51;7.02;76.06
66522;SHT31;53349;53.538;8.584;2023-02-02T09:07:16;7.16;75.95
66522;SHT31;53349;53.538;8.584;2023-02-02T09:09:42;7.28;75.54
66522;SHT31;53349;53.538;8.584;2023-02-02T09:12:07;7.48;75.26
66522;SHT31;53349;53.538;8.584;2023-02-02T09:14:33;7.65;74.78
66522;SHT31;53349;53.538;8.584;2023-02-02T09:16:58;7.64;74.53
66522;SHT31;53349;53.538;8.584;2023-02-02T09:19:23;7.74;74.26
66522;SHT31;53349;53.538;8.584;2023-02-02T09:21:49;7.84;73.73
66522;SHT31;53349;53.538;8.584;2023-02-02T09:24:15;7.84;73.72
66522;SHT31;53349;53.538;8.584;2023-02-02T09:26:42;7.89;73.28
66522;SHT31;53349;53.538;8.584;2023-02-02T09:29:11;8.05;73.04
66522;SHT31;53349;53.538;8.584;2023-02-02T09:31:37;8.28;72.77
66522;SHT31;53349;53.538;8.584;2023-02-02T09:34:04;8.44;71.72
66522;SHT31;53349;53.538;8.584;2023-02-02T09:36:30;8.65;71.80
66522;SHT31;53349;53.538;8.584;2023-02-02T09:38:56;8.97;71.16
66522;SHT31;53349;53.538;8.584;2023-02-02T09:41:48;9.19;70.00
66522;SHT31;53349;53.538;8.584;2023-02-02T09:44:50;9.39;69.81
66522;SHT31;53349;53.538;8.584;2023-02-02T09:47:26;9.67;68.72
66522;SHT31;53349;53.538;8.584;2023-02-02T09:50:31;9.98;68.28
66522;SHT31;53349;53.538;8.584;2023-02-02T09:55:37;10.58;67.17
66522;SHT31;53349;53.538;8.584;2023-02-02T09:58:06;10.64;66.51
66522;SHT31;53349;53.538;8.584;2023-02-02T10:00:43;10.77;65.37
66522;SHT31;53349;53.538;8.584;2023-02-02T10:03:15;10.93;64.88
66522;SHT31;53349;53.538;8.584;2023-02-02T10:06:25;11.10;64.15
66522;SHT31;53349;53.538;8.584;2023-02-02T10:09:05;11.36;63.93
66522;SHT31;53349;53.538;8.584;2023-02-02T10:11:48;11.48;63.22
66522;SHT31;53349;53.538;8.584;2023-02-02T10:14:39;11.41;62.98
66522;SHT31;53349;53.538;8.584;2023-02-02T10:17:46;11.37;63.16
66522;SHT31;53349;53.538;8.584;2023-02-02T10:23:01;11.38;62.75
66522;SHT31;53349;53.538;8.584;2023-02-02T10:25:28;11.23;63.77
66522;SHT31;53349;53.538;8.584;2023-02-02T10:28:17;11.24;63.24
66522;SHT31;53349;53.538;8.584;2023-02-02T10:30:45;11.17;63.17
66522;SHT31;53349;53.538;8.584;2023-02-02T10:33:27;11.05;63.49
66522;SHT31;53349;53.538;8.584;2023-02-02T10:38:37;11.26;62.68
66522;SHT31;53349;53.538;8.584;2023-02-02T10:41:32;11.56;60.98
66522;SHT31;53349;53.538;8.584;2023-02-02T10:46:48;11.56;59.75
66522;SHT31;53349;53.538;8.584;2023-02-02T10:49:29;11.87;60.53
66522;SHT31;53349;53.538;8.584;2023-02-02T11:00:46;12.28;57.74
66522;SHT31;53349;53.538;8.584;2023-02-02T11:03:15;12.56;57.43
66522;SHT31;53349;53.538;8.584;2023-02-02T11:05:40;12.56;56.32
66522;SHT31;53349;53.538;8.584;2023-02-02T11:08:17;12.60;56.91
66522;SHT31;53349;53.538;8.584;2023-02-02T11:10:46;12.68;56.69
66522;SHT31;53349;53.538;8.584;2023-02-02T11:13:16;12.80;55.87
66522;SHT31;53349;53.538;8.584;2023-02-02T11:15:43;12.43;55.98
66522;SHT31;53349;53.538;8.584;2023-02-02T11:18:31;12.45;56.98
66522;SHT31;53349;53.538;8.584;2023-02-02T11:20:56;12.55;57.65
66522;SHT31;53349;53.538;8.584;2023-02-02T11:23:22;12.63;58.10
66522;SHT31;53349;53.538;8.584;2023-02-02T11:25:59;12.73;57.47
66522;SHT31;53349;53.538;8.584;2023-02-02T11:28:32;12.76;56.64
66522;SHT31;53349;53.538;8.584;2023-02-02T11:30:58;12.76;56.22
66522;SHT31;53349;53.538;8.584;2023-02-02T11:33:31;12.70;56.92
66522;SHT31;53349;53.538;8.584;2023-02-02T11:36:04;12.80;57.06
66522;SHT31;53349;53.538;8.584;2023-02-02T11:38:30;12.59;57.11
66522;SHT31;53349;53.538;8.584;2023-02-02T11:41:07;12.67;57.36
66522;SHT31;53349;53.538;8.584;2023-02-02T11:43:36;12.72;57.51
66522;SHT31;53349;53.538;8.584;2023-02-02T11:46:05;12.67;57.80
66522;SHT31;53349;53.538;8.584;2023-02-02T11:48:38;12.53;58.13
66522;SHT31;53349;53.538;8.584;2023-02-02T11:51:09;12.52;58.18
66522;SHT31;53349;53.538;8.584;2023-02-02T11:53:49;12.45;58.58
66522;SHT31;53349;53.538;8.584;2023-02-02T11:56:24;12.37;58.94
66522;SHT31;53349;53.538;8.584;2023-02-02T11:58:52;12.24;59.49
66522;SHT31;53349;53.538;8.584;2023-02-02T12:04:18;12.04;61.10
66522;SHT31;53349;53.538;8.584;2023-02-02T12:06:45;12.01;61.59
66522;SHT31;53349;53.538;8.584;2023-02-02T12:09:13;11.94;61.65
66522;SHT31;53349;53.538;8.584;2023-02-02T12:14:41;11.78;61.89
66522;SHT31;53349;53.538;8.584;2023-02-02T12:33:42;10.79;64.01
66522;SHT31;53349;53.538;8.584;2023-02-02T12:36:33;10.65;64.20
66522;SHT31;53349;53.538;8.584;2023-02-02T12:47:26;10.13;65.64
66522;SHT31;53349;53.538;8.584;2023-02-02T12:50:13;10.04;65.93
66522;SHT31;53349;53.538;8.584;2023-02-02T12:55:46;10.10;66.25
66522;SHT31;53349;53.538;8.584;2023-02-02T13:06:57;9.67;67.24
66522;SHT31;53349;53.538;8.584;2023-02-02T13:10:01;9.65;67.66
66522;SHT31;53349;53.538;8.584;2023-02-02T13:12:28;9.52;67.80
66522;SHT31;53349;53.538;8.584;2023-02-02T13:15:00;9.52;67.73
66522;SHT31;53349;53.538;8.584;2023-02-02T13:17:52;9.55;67.74
66522;SHT31;53349;53.538;8.584;2023-02-02T13:23:04;9.56;67.58
66522;SHT31;53349;53.538;8.584;2023-02-02T13:25:36;9.56;67.56
66522;SHT31;53349;53.538;8.584;2023-02-02T13:28:05;9.63;67.72
66522;SHT31;53349;53.538;8.584;2023-02-02T13:30:36;9.63;67.63
66522;SHT31;53349;53.538;8.584;2023-02-02T13:33:10;9.60;67.68
66522;SHT31;53349;53.538;8.584;2023-02-02T13:35:51;9.65;67.63
66522;SHT31;53349;53.538;8.584;2023-02-02T13:38:26;9.59;67.80
66522;SHT31;53349;53.538;8.584;2023-02-02T13:40:54;9.45;68.42
66522;SHT31;53349;53.538;8.584;2023-02-02T13:43:44;9.45;68.89
66522;SHT31;53349;53.538;8.584;2023-02-02T13:46:41;9.42;69.06
66522;SHT31;53349;53.538;8.584;2023-02-02T13:49:26;9.39;69.05
66522;SHT31;53349;53.538;8.584;2023-02-02T13:57:55;9.39;69.70
66522;SHT31;53349;53.538;8.584;2023-02-02T14:00:30;9.40;69.70
66522;SHT31;53349;53.538;8.584;2023-02-02T14:03:03;9.39;69.65
66522;SHT31;53349;53.538;8.584;2023-02-02T14:05:34;9.32;69.60
66522;SHT31;53349;53.538;8.584;2023-02-02T14:15:43;9.16;69.90
66522;SHT31;53349;53.538;8.584;2023-02-02T14:18:08;9.18;70.15
66522;SHT31;53349;53.538;8.584;2023-02-02T14:23:49;9.11;70.27
66522;SHT31;53349;53.538;8.584;2023-02-02T14:26:19;9.00;70.31
66522;SHT31;53349;53.538;8.584;2023-02-02T14:31:53;8.84;70.69
66522;SHT31;53349;53.538;8.584;2023-02-02T14:34:33;8.77;71.05
66522;SHT31;53349;53.538;8.584;2023-02-02T14:43:05;8.81;71.54
66522;SHT31;53349;53.538;8.584;2023-02-02T14:53:14;8.67;71.66
66522;SHT31;53349;53.538;8.584;2023-02-02T14:58:23;8.67;71.69
66522;SHT31;53349;53.538;8.584;2023-02-02T15:04:16;8.67;71.47
66522;SHT31;53349;53.538;8.584;2023-02-02T15:06:46;8.65;71.43
66522;SHT31;53349;53.538;8.584;2023-02-02T15:15:15;8.50;71.68
66522;SHT31;53349;53.538;8.584;2023-02-02T15:20:19;8.53;71.76
66522;SHT31;53349;53.538;8.584;2023-02-02T15:25:39;8.50;71.60
66522;SHT31;53349;53.538;8.584;2023-02-02T15:30:35;8.40;71.70
66522;SHT31;53349;53.538;8.584;2023-02-02T15:33:12;8.36;72.10
66522;SHT31;53349;53.538;8.584;2023-02-02T15:35:40;8.33;71.77
66522;SHT31;53349;53.538;8.584;2023-02-02T15:38:11;8.30;72.08
66522;SHT31;53349;53.538;8.584;2023-02-02T15:40:38;8.32;72.13
66522;SHT31;53349;53.538;8.584;2023-02-02T15:43:05;8.37;72.06
66522;SHT31;53349;53.538;8.584;2023-02-02T15:45:34;8.37;72.23
66522;SHT31;53349;53.538;8.584;2023-02-02T15:48:06;8.34;71.85
66522;SHT31;53349;53.538;8.584;2023-02-02T15:50:33;8.32;72.06
66522;SHT31;53349;53.538;8.584;2023-02-02T15:52:58;8.34;72.11
66522;SHT31;53349;53.538;8.584;2023-02-02T15:55:34;8.36;72.27
66522;SHT31;53349;53.538;8.584;2023-02-02T15:58:00;8.29;72.20
66522;SHT31;53349;53.538;8.584;2023-02-02T16:00:30;8.30;72.13
66522;SHT31;53349;53.538;8.584;2023-02-02T16:08:00;8.26;72.01
66522;SHT31;53349;53.538;8.584;2023-02-02T16:10:26;8.21;71.85
66522;SHT31;53349;53.538;8.584;2023-02-02T16:12:54;8.19;71.49
66522;SHT31;53349;53.538;8.584;2023-02-02T16:15:22;8.13;71.22
66522;SHT31;53349;53.538;8.584;2023-02-02T16:18:09;8.05;71.16
66522;SHT31;53349;53.538;8.584;2023-02-02T16:20:37;8.10;71.35
66522;SHT31;53349;53.538;8.584;2023-02-02T16:23:05;8.13;71.37
66522;SHT31;53349;53.538;8.584;2023-02-02T16:25:41;8.12;71.32
66522;SHT31;53349;53.538;8.584;2023-02-02T16:28:18;8.10;71.24
66522;SHT31;53349;53.538;8.584;2023-02-02T16:30:44;8.12;70.94
66522;SHT31;53349;53.538;8.584;2023-02-02T16:33:26;8.10;71.03
66522;SHT31;53349;53.538;8.584;2023-02-02T16:35:51;8.09;71.27
66522;SHT31;53349;53.538;8.584;2023-02-02T16:38:30;8.06;71.30
66522;SHT31;53349;53.538;8.584;2023-02-02T16:41:05;8.06;71.30
66522;SHT31;53349;53.538;8.584;2023-02-02T16:43:32;8.06;71.16
66522;SHT31;53349;53.538;8.584;2023-02-02T16:46:00;8.05;71.50
66522;SHT31;53349;53.538;8.584;2023-02-02T16:53:50;7.89;73.73
66522;SHT31;53349;53.538;8.584;2023-02-02T16:56:43;7.81;74.41
66522;SHT31;53349;53.538;8.584;2023-02-02T16:59:24;7.77;75.05
66522;SHT31;53349;53.538;8.584;2023-02-02T17:01:54;7.74;75.41
66522;SHT31;53349;53.538;8.584;2023-02-02T17:04:26;7.71;75.72
66522;SHT31;53349;53.538;8.584;2023-02-02T17:06:54;7.70;76.26
66522;SHT31;53349;53.538;8.584;2023-02-02T17:09:38;7.67;76.74
66522;SHT31;53349;53.538;8.584;2023-02-02T17:12:22;7.63;77.08
66522;SHT31;53349;53.538;8.584;2023-02-02T17:14:55;7.58;77.42
66522;SHT31;53349;53.538;8.584;2023-02-02T17:17:21;7.58;77.66
66522;SHT31;53349;53.538;8.584;2023-02-02T17:19:47;7.55;77.85
66522;SHT31;53349;53.538;8.584;2023-02-02T17:22:14;7.53;78.23
66522;SHT31;53349;53.538;8.584;2023-02-02T17:24:43;7.47;78.44
66522;SHT31;53349;53.538;8.584;2023-02-02T17:27:14;7.47;78.54
66522;SHT31;53349;53.538;8.584;2023-02-02T17:29:40;7.48;78.61
66522;SHT31;53349;53.538;8.584;2023-02-02T17:32:07;7.41;78.79
66522;SHT31;53349;53.538;8.584;2023-02-02T17:34:33;7.40;78.88
66522;SHT31;53349;53.538;8.584;2023-02-02T17:36:59;7.35;78.64
66522;SHT31;53349;53.538;8.584;2023-02-02T17:39:24;7.34;78.51
66522;SHT31;53349;53.538;8.584;2023-02-02T17:41:49;7.33;78.38
66522;SHT31;53349;53.538;8.584;2023-02-02T17:44:15;7.31;78.32
66522;SHT31;53349;53.538;8.584;2023-02-02T17:46:40;7.31;78.45
66522;SHT31;53349;53.538;8.584;2023-02-02T17:49:07;7.23;78.65
66522;SHT31;53349;53.538;8.584;2023-02-02T17:51:34;7.22;78.86
66522;SHT31;53349;53.538;8.584;2023-02-02T17:53:59;7.19;79.26
66522;SHT31;53349;53.538;8.584;2023-02-02T17:56:25;7.20;79.36
66522;SHT31;53349;53.538;8.584;2023-02-02T17:58:50;7.17;79.37
66522;SHT31;53349;53.538;8.584;2023-02-02T18:01:19;7.19;79.71
66522;SHT31;53349;53.538;8.584;2023-02-02T18:03:44;7.16;79.92
66522;SHT31;53349;53.538;8.584;2023-02-02T18:06:10;7.12;79.93
66522;SHT31;53349;53.538;8.584;2023-02-02T18:08:36;7.07;79.87
66522;SHT31;53349;53.538;8.584;2023-02-02T18:11:01;7.07;79.96
66522;SHT31;53349;53.538;8.584;2023-02-02T18:13:27;7.07;79.90
66522;SHT31;53349;53.538;8.584;2023-02-02T18:15:54;7.02;79.93
66522;SHT31;53349;53.538;8.584;2023-02-02T18:18:19;7.06;79.91
66522;SHT31;53349;53.538;8.584;2023-02-02T18:20:47;7.02;80.05
66522;SHT31;53349;53.538;8.584;2023-02-02T18:23:13;6.92;80.09
66522;SHT31;53349;53.538;8.584;2023-02-02T18:25:39;6.95;80.34
66522;SHT31;53349;53.538;8.584;2023-02-02T18:28:06;6.92;80.17